sensor_id;sensor_type;location;lat;lon;timestamp;P1;durP1;ratioP1;P2;durP2;ratioP2
36379;SDS011;22411;53.016;18.632;2024-01-07T00:01:55;8.37;;;3.63;;
36379;SDS011;22411;53.016;18.632;2024-01-07T00:04:21;10.57;;;3.50;;
36379;SDS011;22411;53.016;18.632;2024-01-07T00:06:47;7.07;;;3.13;;
36379;SDS011;22411;53.016;18.632;2024-01-07T00:09:13;8.00;;;3.70;;
36379;SDS011;22411;53.016;18.632;2024-01-07T00:11:39;9.77;;;4.27;;
36379;SDS011;22411;53.016;18.632;2024-01-07T00:14:06;6.60;;;2.80;;
36379;SDS011;22411;53.016;18.632;2024-01-07T00:16:31;7.73;;;3.00;;
36379;SDS011;22411;53.016;18.632;2024-01-07T00:18:57;5.87;;;3.77;;
36379;SDS011;22411;53.016;18.632;2024-01-07T00:21:23;10.77;;;3.13;;
36379;SDS011;22411;53.016;18.632;2024-01-07T00:23:49;8.60;;;3.50;;
36379;SDS011;22411;53.016;18.632;2024-01-07T00:26:15;5.43;;;3.43;;
36379;SDS011;22411;53.016;18.632;2024-01-07T00:28:41;8.73;;;3.77;;
36379;SDS011;22411;53.016;18.632;2024-01-07T00:31:06;7.53;;;4.50;;
36379;SDS011;22411;53.016;18.632;2024-01-07T00:33:35;7.93;;;3.87;;
36379;SDS011;22411;53.016;18.632;2024-01-07T00:36:03;8.47;;;3.97;;
36379;SDS011;22411;53.016;18.632;2024-01-07T00:38:29;10.83;;;5.10;;
36379;SDS011;22411;53.016;18.632;2024-01-07T00:40:54;6.53;;;4.20;;
36379;SDS011;22411;53.016;18.632;2024-01-07T00:43:20;9.60;;;4.40;;
36379;SDS011;22411;53.016;18.632;2024-01-07T00:45:45;6.63;;;4.67;;
36379;SDS011;22411;53.016;18.632;2024-01-07T00:48:11;7.60;;;4.03;;
36379;SDS011;22411;53.016;18.632;2024-01-07T00:50:37;5.93;;;3.63;;
36379;SDS011;22411;53.016;18.632;2024-01-07T00:53:03;7.63;;;2.47;;
36379;SDS011;22411;53.016;18.632;2024-01-07T00:55:28;5.20;;;2.30;;
36379;SDS011;22411;53.016;18.632;2024-01-07T00:57:54;4.67;;;2.63;;
36379;SDS011;22411;53.016;18.632;2024-01-07T01:00:20;4.73;;;2.70;;
36379;SDS011;22411;53.016;18.632;2024-01-07T01:02:46;10.27;;;2.53;;
36379;SDS011;22411;53.016;18.632;2024-01-07T01:05:12;5.37;;;2.30;;
36379;SDS011;22411;53.016;18.632;2024-01-07T01:07:38;5.43;;;2.43;;
36379;SDS011;22411;53.016;18.632;2024-01-07T01:10:03;3.40;;;1.80;;
36379;SDS011;22411;53.016;18.632;2024-01-07T01:12:30;6.43;;;3.27;;
36379;SDS011;22411;53.016;18.632;2024-01-07T01:14:55;4.93;;;2.50;;
36379;SDS011;22411;53.016;18.632;2024-01-07T01:17:21;3.93;;;1.93;;
36379;SDS011;22411;53.016;18.632;2024-01-07T01:19:47;6.13;;;3.20;;
36379;SDS011;22411;53.016;18.632;2024-01-07T01:22:13;6.17;;;2.50;;
36379;SDS011;22411;53.016;18.632;2024-01-07T01:24:38;7.70;;;2.50;;
36379;SDS011;22411;53.016;18.632;2024-01-07T01:27:04;4.80;;;2.40;;
36379;SDS011;22411;53.016;18.632;2024-01-07T01:29:30;7.17;;;3.20;;
36379;SDS011;22411;53.016;18.632;2024-01-07T01:31:56;6.47;;;2.63;;
36379;SDS011;22411;53.016;18.632;2024-01-07T01:34:22;5.97;;;2.90;;
36379;SDS011;22411;53.016;18.632;2024-01-07T01:36:50;6.10;;;2.67;;
36379;SDS011;22411;53.016;18.632;2024-01-07T01:39:15;5.10;;;2.77;;
36379;SDS011;22411;53.016;18.632;2024-01-07T01:41:42;4.50;;;2.00;;
36379;SDS011;22411;53.016;18.632;2024-01-07T01:44:07;5.70;;;3.10;;
36379;SDS011;22411;53.016;18.632;2024-01-07T01:46:33;6.00;;;3.40;;
36379;SDS011;22411;53.016;18.632;2024-01-07T01:48:59;5.40;;;3.23;;
36379;SDS011;22411;53.016;18.632;2024-01-07T01:51:26;7.27;;;3.30;;
36379;SDS011;22411;53.016;18.632;2024-01-07T01:53:51;6.17;;;2.67;;
36379;SDS011;22411;53.016;18.632;2024-01-07T01:56:18;6.23;;;3.03;;
36379;SDS011;22411;53.016;18.632;2024-01-07T01:58:46;7.47;;;3.00;;
36379;SDS011;22411;53.016;18.632;2024-01-07T02:01:12;7.33;;;4.13;;
36379;SDS011;22411;53.016;18.632;2024-01-07T02:03:38;7.63;;;2.90;;
36379;SDS011;22411;53.016;18.632;2024-01-07T02:06:04;8.00;;;3.80;;
36379;SDS011;22411;53.016;18.632;2024-01-07T02:08:30;9.37;;;3.47;;
36379;SDS011;22411;53.016;18.632;2024-01-07T02:10:57;6.90;;;3.70;;
36379;SDS011;22411;53.016;18.632;2024-01-07T02:13:22;5.20;;;3.27;;
36379;SDS011;22411;53.016;18.632;2024-01-07T02:15:48;8.60;;;3.87;;
36379;SDS011;22411;53.016;18.632;2024-01-07T02:18:13;7.37;;;3.73;;
36379;SDS011;22411;53.016;18.632;2024-01-07T02:20:40;7.50;;;3.60;;
36379;SDS011;22411;53.016;18.632;2024-01-07T02:23:05;6.63;;;4.03;;
36379;SDS011;22411;53.016;18.632;2024-01-07T02:25:37;5.33;;;2.87;;
36379;SDS011;22411;53.016;18.632;2024-01-07T02:28:04;5.00;;;2.77;;
36379;SDS011;22411;53.016;18.632;2024-01-07T02:30:30;9.20;;;3.40;;
36379;SDS011;22411;53.016;18.632;2024-01-07T02:32:56;4.77;;;2.80;;
36379;SDS011;22411;53.016;18.632;2024-01-07T02:35:21;8.30;;;2.80;;
36379;SDS011;22411;53.016;18.632;2024-01-07T02:37:47;5.83;;;2.93;;
36379;SDS011;22411;53.016;18.632;2024-01-07T02:40:13;4.93;;;3.33;;
36379;SDS011;22411;53.016;18.632;2024-01-07T02:42:38;4.80;;;3.63;;
36379;SDS011;22411;53.016;18.632;2024-01-07T02:45:05;9.27;;;3.53;;
36379;SDS011;22411;53.016;18.632;2024-01-07T02:47:30;7.87;;;3.97;;
36379;SDS011;22411;53.016;18.632;2024-01-07T02:49:56;8.60;;;4.27;;
36379;SDS011;22411;53.016;18.632;2024-01-07T02:52:22;6.73;;;4.20;;
36379;SDS011;22411;53.016;18.632;2024-01-07T02:54:48;7.67;;;3.53;;
36379;SDS011;22411;53.016;18.632;2024-01-07T02:57:13;10.67;;;4.53;;
36379;SDS011;22411;53.016;18.632;2024-01-07T02:59:39;5.03;;;3.13;;
36379;SDS011;22411;53.016;18.632;2024-01-07T03:02:05;7.73;;;3.90;;
36379;SDS011;22411;53.016;18.632;2024-01-07T03:04:31;8.17;;;3.60;;
36379;SDS011;22411;53.016;18.632;2024-01-07T03:06:56;6.27;;;4.13;;
36379;SDS011;22411;53.016;18.632;2024-01-07T03:09:22;8.37;;;3.70;;
36379;SDS011;22411;53.016;18.632;2024-01-07T03:11:47;6.67;;;3.17;;
36379;SDS011;22411;53.016;18.632;2024-01-07T03:14:16;6.37;;;3.47;;
36379;SDS011;22411;53.016;18.632;2024-01-07T03:16:45;6.67;;;3.27;;
36379;SDS011;22411;53.016;18.632;2024-01-07T03:19:11;9.30;;;4.40;;
36379;SDS011;22411;53.016;18.632;2024-01-07T03:21:37;9.97;;;4.70;;
36379;SDS011;22411;53.016;18.632;2024-01-07T03:24:03;6.73;;;3.80;;
36379;SDS011;22411;53.016;18.632;2024-01-07T03:26:30;8.23;;;3.87;;
36379;SDS011;22411;53.016;18.632;2024-01-07T03:28:59;7.67;;;4.83;;
36379;SDS011;22411;53.016;18.632;2024-01-07T03:31:29;7.13;;;4.53;;
36379;SDS011;22411;53.016;18.632;2024-01-07T03:33:55;17.47;;;6.33;;
36379;SDS011;22411;53.016;18.632;2024-01-07T03:36:20;10.97;;;4.93;;
36379;SDS011;22411;53.016;18.632;2024-01-07T03:38:47;9.93;;;5.00;;
36379;SDS011;22411;53.016;18.632;2024-01-07T03:41:19;9.40;;;4.67;;
36379;SDS011;22411;53.016;18.632;2024-01-07T03:43:46;9.10;;;4.40;;
36379;SDS011;22411;53.016;18.632;2024-01-07T03:46:12;12.43;;;5.40;;
36379;SDS011;22411;53.016;18.632;2024-01-07T03:48:39;9.80;;;4.57;;
36379;SDS011;22411;53.016;18.632;2024-01-07T03:51:06;8.93;;;4.63;;
36379;SDS011;22411;53.016;18.632;2024-01-07T03:53:32;11.17;;;5.53;;
36379;SDS011;22411;53.016;18.632;2024-01-07T03:55:58;11.90;;;4.97;;
36379;SDS011;22411;53.016;18.632;2024-01-07T03:58:24;9.43;;;5.57;;
36379;SDS011;22411;53.016;18.632;2024-01-07T04:00:49;7.93;;;4.57;;
36379;SDS011;22411;53.016;18.632;2024-01-07T04:03:15;7.20;;;4.83;;
36379;SDS011;22411;53.016;18.632;2024-01-07T04:05:41;8.97;;;4.83;;
36379;SDS011;22411;53.016;18.632;2024-01-07T04:08:09;7.70;;;4.67;;
36379;SDS011;22411;53.016;18.632;2024-01-07T04:10:35;8.83;;;4.80;;
36379;SDS011;22411;53.016;18.632;2024-01-07T04:13:02;12.33;;;7.47;;
36379;SDS011;22411;53.016;18.632;2024-01-07T04:15:29;10.70;;;6.80;;
36379;SDS011;22411;53.016;18.632;2024-01-07T04:17:55;11.83;;;5.63;;
36379;SDS011;22411;53.016;18.632;2024-01-07T04:20:20;11.07;;;6.47;;
36379;SDS011;22411;53.016;18.632;2024-01-07T04:22:46;10.27;;;5.70;;
36379;SDS011;22411;53.016;18.632;2024-01-07T04:25:12;10.37;;;5.23;;
36379;SDS011;22411;53.016;18.632;2024-01-07T04:27:38;9.00;;;4.93;;
36379;SDS011;22411;53.016;18.632;2024-01-07T04:30:04;5.47;;;3.90;;
36379;SDS011;22411;53.016;18.632;2024-01-07T04:32:31;9.63;;;4.80;;
36379;SDS011;22411;53.016;18.632;2024-01-07T04:34:57;11.77;;;5.13;;
36379;SDS011;22411;53.016;18.632;2024-01-07T04:37:23;8.60;;;5.23;;
36379;SDS011;22411;53.016;18.632;2024-01-07T04:39:49;10.07;;;5.47;;
36379;SDS011;22411;53.016;18.632;2024-01-07T04:42:16;10.27;;;5.70;;
36379;SDS011;22411;53.016;18.632;2024-01-07T04:44:42;10.53;;;5.73;;
36379;SDS011;22411;53.016;18.632;2024-01-07T04:47:25;9.97;;;5.37;;
36379;SDS011;22411;53.016;18.632;2024-01-07T04:49:52;12.67;;;5.63;;
36379;SDS011;22411;53.016;18.632;2024-01-07T04:52:18;8.37;;;5.33;;
36379;SDS011;22411;53.016;18.632;2024-01-07T04:54:43;8.53;;;5.00;;
36379;SDS011;22411;53.016;18.632;2024-01-07T04:57:09;6.80;;;4.30;;
36379;SDS011;22411;53.016;18.632;2024-01-07T04:59:34;10.17;;;5.67;;
36379;SDS011;22411;53.016;18.632;2024-01-07T05:02:00;11.20;;;5.97;;
36379;SDS011;22411;53.016;18.632;2024-01-07T05:04:26;12.60;;;5.60;;
36379;SDS011;22411;53.016;18.632;2024-01-07T05:06:52;9.07;;;5.00;;
36379;SDS011;22411;53.016;18.632;2024-01-07T05:09:17;7.70;;;4.27;;
36379;SDS011;22411;53.016;18.632;2024-01-07T05:11:43;8.23;;;4.70;;
36379;SDS011;22411;53.016;18.632;2024-01-07T05:14:08;8.50;;;3.97;;
36379;SDS011;22411;53.016;18.632;2024-01-07T05:16:36;10.03;;;4.10;;
36379;SDS011;22411;53.016;18.632;2024-01-07T05:19:02;6.63;;;4.17;;
36379;SDS011;22411;53.016;18.632;2024-01-07T05:21:29;11.33;;;3.77;;
36379;SDS011;22411;53.016;18.632;2024-01-07T05:23:54;9.90;;;5.20;;
36379;SDS011;22411;53.016;18.632;2024-01-07T05:26:21;8.83;;;3.73;;
36379;SDS011;22411;53.016;18.632;2024-01-07T05:28:47;8.30;;;4.73;;
36379;SDS011;22411;53.016;18.632;2024-01-07T05:31:16;7.43;;;4.57;;
36379;SDS011;22411;53.016;18.632;2024-01-07T05:33:45;6.33;;;3.13;;
36379;SDS011;22411;53.016;18.632;2024-01-07T05:36:11;12.13;;;5.70;;
36379;SDS011;22411;53.016;18.632;2024-01-07T05:38:37;9.83;;;5.23;;
36379;SDS011;22411;53.016;18.632;2024-01-07T05:41:04;8.27;;;4.90;;
36379;SDS011;22411;53.016;18.632;2024-01-07T05:43:30;6.80;;;3.57;;
36379;SDS011;22411;53.016;18.632;2024-01-07T05:45:56;7.87;;;3.63;;
36379;SDS011;22411;53.016;18.632;2024-01-07T05:48:21;8.20;;;3.80;;
36379;SDS011;22411;53.016;18.632;2024-01-07T05:50:48;7.63;;;3.80;;
36379;SDS011;22411;53.016;18.632;2024-01-07T05:53:14;7.73;;;4.30;;
36379;SDS011;22411;53.016;18.632;2024-01-07T05:55:40;8.97;;;5.53;;
36379;SDS011;22411;53.016;18.632;2024-01-07T05:58:05;9.07;;;4.70;;
36379;SDS011;22411;53.016;18.632;2024-01-07T06:00:31;10.03;;;5.80;;
36379;SDS011;22411;53.016;18.632;2024-01-07T06:02:57;8.43;;;5.40;;
36379;SDS011;22411;53.016;18.632;2024-01-07T06:05:23;7.87;;;4.83;;
36379;SDS011;22411;53.016;18.632;2024-01-07T06:07:48;12.47;;;6.33;;
36379;SDS011;22411;53.016;18.632;2024-01-07T06:10:14;12.37;;;5.80;;
36379;SDS011;22411;53.016;18.632;2024-01-07T06:12:40;9.43;;;5.23;;
36379;SDS011;22411;53.016;18.632;2024-01-07T06:15:06;12.07;;;6.27;;
36379;SDS011;22411;53.016;18.632;2024-01-07T06:17:32;10.83;;;5.20;;
36379;SDS011;22411;53.016;18.632;2024-01-07T06:19:58;10.60;;;5.13;;
36379;SDS011;22411;53.016;18.632;2024-01-07T06:22:24;12.77;;;5.50;;
36379;SDS011;22411;53.016;18.632;2024-01-07T06:24:50;8.50;;;4.80;;
36379;SDS011;22411;53.016;18.632;2024-01-07T06:27:15;9.03;;;5.13;;
36379;SDS011;22411;53.016;18.632;2024-01-07T06:29:41;7.37;;;5.20;;
36379;SDS011;22411;53.016;18.632;2024-01-07T06:32:07;9.13;;;5.83;;
36379;SDS011;22411;53.016;18.632;2024-01-07T06:34:33;11.20;;;5.43;;
36379;SDS011;22411;53.016;18.632;2024-01-07T06:36:58;10.53;;;4.63;;
36379;SDS011;22411;53.016;18.632;2024-01-07T06:39:25;9.67;;;5.33;;
36379;SDS011;22411;53.016;18.632;2024-01-07T06:41:53;9.53;;;4.93;;
36379;SDS011;22411;53.016;18.632;2024-01-07T06:44:19;11.53;;;5.60;;
36379;SDS011;22411;53.016;18.632;2024-01-07T06:46:45;8.67;;;4.87;;
36379;SDS011;22411;53.016;18.632;2024-01-07T06:49:11;8.60;;;4.60;;
36379;SDS011;22411;53.016;18.632;2024-01-07T06:51:37;8.63;;;5.40;;
36379;SDS011;22411;53.016;18.632;2024-01-07T06:54:04;10.67;;;5.60;;
36379;SDS011;22411;53.016;18.632;2024-01-07T06:56:30;14.40;;;6.40;;
36379;SDS011;22411;53.016;18.632;2024-01-07T06:58:57;11.63;;;5.50;;
36379;SDS011;22411;53.016;18.632;2024-01-07T07:01:22;12.07;;;5.70;;
36379;SDS011;22411;53.016;18.632;2024-01-07T07:03:51;11.50;;;5.47;;
36379;SDS011;22411;53.016;18.632;2024-01-07T07:06:16;10.53;;;7.07;;
36379;SDS011;22411;53.016;18.632;2024-01-07T07:08:42;11.20;;;5.97;;
36379;SDS011;22411;53.016;18.632;2024-01-07T07:11:08;18.77;;;9.40;;
36379;SDS011;22411;53.016;18.632;2024-01-07T07:13:34;13.90;;;7.30;;
36379;SDS011;22411;53.016;18.632;2024-01-07T07:16:00;14.03;;;6.33;;
36379;SDS011;22411;53.016;18.632;2024-01-07T07:18:26;17.03;;;8.57;;
36379;SDS011;22411;53.016;18.632;2024-01-07T07:20:52;12.43;;;6.40;;
36379;SDS011;22411;53.016;18.632;2024-01-07T07:23:18;10.47;;;5.63;;
36379;SDS011;22411;53.016;18.632;2024-01-07T07:25:43;12.87;;;7.53;;
36379;SDS011;22411;53.016;18.632;2024-01-07T07:28:10;13.40;;;7.30;;
36379;SDS011;22411;53.016;18.632;2024-01-07T07:30:35;11.83;;;6.97;;
36379;SDS011;22411;53.016;18.632;2024-01-07T07:33:01;15.40;;;7.70;;
36379;SDS011;22411;53.016;18.632;2024-01-07T07:35:27;17.83;;;10.10;;
36379;SDS011;22411;53.016;18.632;2024-01-07T07:37:54;18.70;;;10.17;;
36379;SDS011;22411;53.016;18.632;2024-01-07T07:40:20;13.87;;;8.67;;
36379;SDS011;22411;53.016;18.632;2024-01-07T07:42:46;24.40;;;9.33;;
36379;SDS011;22411;53.016;18.632;2024-01-07T07:45:12;25.13;;;10.80;;
36379;SDS011;22411;53.016;18.632;2024-01-07T07:47:38;51.93;;;18.90;;
36379;SDS011;22411;53.016;18.632;2024-01-07T07:50:07;43.63;;;17.63;;
36379;SDS011;22411;53.016;18.632;2024-01-07T07:52:32;21.20;;;11.33;;
36379;SDS011;22411;53.016;18.632;2024-01-07T07:54:58;20.10;;;12.60;;
36379;SDS011;22411;53.016;18.632;2024-01-07T07:57:24;20.17;;;11.27;;
36379;SDS011;22411;53.016;18.632;2024-01-07T07:59:50;15.90;;;8.73;;
36379;SDS011;22411;53.016;18.632;2024-01-07T08:02:16;14.00;;;7.87;;
36379;SDS011;22411;53.016;18.632;2024-01-07T08:04:42;22.97;;;11.83;;
36379;SDS011;22411;53.016;18.632;2024-01-07T08:07:09;39.60;;;17.20;;
36379;SDS011;22411;53.016;18.632;2024-01-07T08:09:35;38.70;;;17.83;;
36379;SDS011;22411;53.016;18.632;2024-01-07T08:12:04;54.37;;;25.00;;
36379;SDS011;22411;53.016;18.632;2024-01-07T08:14:31;55.47;;;25.50;;
36379;SDS011;22411;53.016;18.632;2024-01-07T08:16:57;68.70;;;28.90;;
36379;SDS011;22411;53.016;18.632;2024-01-07T08:19:23;68.63;;;32.77;;
36379;SDS011;22411;53.016;18.632;2024-01-07T08:21:48;44.33;;;23.93;;
36379;SDS011;22411;53.016;18.632;2024-01-07T08:24:14;49.27;;;24.60;;
36379;SDS011;22411;53.016;18.632;2024-01-07T08:26:40;59.33;;;30.40;;
36379;SDS011;22411;53.016;18.632;2024-01-07T08:29:05;54.27;;;25.83;;
36379;SDS011;22411;53.016;18.632;2024-01-07T08:31:32;42.83;;;22.97;;
36379;SDS011;22411;53.016;18.632;2024-01-07T08:33:58;25.13;;;17.70;;
36379;SDS011;22411;53.016;18.632;2024-01-07T08:36:24;26.57;;;15.53;;
36379;SDS011;22411;53.016;18.632;2024-01-07T08:38:49;24.23;;;12.03;;
36379;SDS011;22411;53.016;18.632;2024-01-07T08:41:15;20.23;;;10.60;;
36379;SDS011;22411;53.016;18.632;2024-01-07T08:43:41;12.57;;;8.90;;
36379;SDS011;22411;53.016;18.632;2024-01-07T08:46:07;16.40;;;10.20;;
36379;SDS011;22411;53.016;18.632;2024-01-07T08:48:33;19.37;;;9.50;;
36379;SDS011;22411;53.016;18.632;2024-01-07T08:50:59;17.87;;;10.07;;
36379;SDS011;22411;53.016;18.632;2024-01-07T08:53:24;17.30;;;12.97;;
36379;SDS011;22411;53.016;18.632;2024-01-07T08:55:51;16.23;;;11.00;;
36379;SDS011;22411;53.016;18.632;2024-01-07T08:58:16;23.00;;;13.60;;
36379;SDS011;22411;53.016;18.632;2024-01-07T09:00:42;24.83;;;14.37;;
36379;SDS011;22411;53.016;18.632;2024-01-07T09:03:10;35.50;;;25.00;;
36379;SDS011;22411;53.016;18.632;2024-01-07T09:05:36;23.03;;;15.00;;
36379;SDS011;22411;53.016;18.632;2024-01-07T09:08:02;15.87;;;10.63;;
36379;SDS011;22411;53.016;18.632;2024-01-07T09:10:28;23.73;;;14.83;;
36379;SDS011;22411;53.016;18.632;2024-01-07T09:12:54;31.20;;;15.37;;
36379;SDS011;22411;53.016;18.632;2024-01-07T09:15:19;29.20;;;16.60;;
36379;SDS011;22411;53.016;18.632;2024-01-07T09:17:46;31.37;;;17.53;;
36379;SDS011;22411;53.016;18.632;2024-01-07T09:20:12;38.30;;;24.93;;
36379;SDS011;22411;53.016;18.632;2024-01-07T09:22:38;33.80;;;22.07;;
36379;SDS011;22411;53.016;18.632;2024-01-07T09:25:05;32.60;;;21.70;;
36379;SDS011;22411;53.016;18.632;2024-01-07T09:27:32;28.43;;;17.83;;
36379;SDS011;22411;53.016;18.632;2024-01-07T09:29:58;19.63;;;11.27;;
36379;SDS011;22411;53.016;18.632;2024-01-07T09:32:25;13.27;;;8.87;;
36379;SDS011;22411;53.016;18.632;2024-01-07T09:34:50;12.93;;;8.67;;
36379;SDS011;22411;53.016;18.632;2024-01-07T09:37:17;19.90;;;12.20;;
36379;SDS011;22411;53.016;18.632;2024-01-07T09:39:43;19.50;;;10.63;;
36379;SDS011;22411;53.016;18.632;2024-01-07T09:42:13;13.40;;;8.57;;
36379;SDS011;22411;53.016;18.632;2024-01-07T09:44:40;18.38;;;10.13;;
36379;SDS011;22411;53.016;18.632;2024-01-07T09:47:14;21.13;;;11.10;;
36379;SDS011;22411;53.016;18.632;2024-01-07T09:49:40;19.37;;;10.60;;
36379;SDS011;22411;53.016;18.632;2024-01-07T09:52:09;20.57;;;12.07;;
36379;SDS011;22411;53.016;18.632;2024-01-07T09:54:36;37.93;;;24.90;;
36379;SDS011;22411;53.016;18.632;2024-01-07T09:57:04;27.17;;;17.50;;
36379;SDS011;22411;53.016;18.632;2024-01-07T09:59:34;29.30;;;15.63;;
36379;SDS011;22411;53.016;18.632;2024-01-07T10:02:02;43.53;;;29.00;;
36379;SDS011;22411;53.016;18.632;2024-01-07T10:04:28;57.37;;;28.47;;
36379;SDS011;22411;53.016;18.632;2024-01-07T10:06:54;26.73;;;12.80;;
36379;SDS011;22411;53.016;18.632;2024-01-07T10:09:23;20.30;;;10.60;;
36379;SDS011;22411;53.016;18.632;2024-01-07T10:11:51;26.55;;;14.40;;
36379;SDS011;22411;53.016;18.632;2024-01-07T10:14:18;21.67;;;13.43;;
36379;SDS011;22411;53.016;18.632;2024-01-07T10:16:45;29.97;;;18.30;;
36379;SDS011;22411;53.016;18.632;2024-01-07T10:19:11;24.43;;;12.97;;
36379;SDS011;22411;53.016;18.632;2024-01-07T10:21:37;31.60;;;18.90;;
36379;SDS011;22411;53.016;18.632;2024-01-07T10:24:08;14.82;;;10.38;;
36379;SDS011;22411;53.016;18.632;2024-01-07T10:26:37;12.27;;;6.75;;
36379;SDS011;22411;53.016;18.632;2024-01-07T10:29:04;16.63;;;9.95;;
36379;SDS011;22411;53.016;18.632;2024-01-07T10:31:31;15.30;;;9.43;;
36379;SDS011;22411;53.016;18.632;2024-01-07T10:33:57;11.15;;;7.32;;
36379;SDS011;22411;53.016;18.632;2024-01-07T10:36:23;13.52;;;7.80;;
36379;SDS011;22411;53.016;18.632;2024-01-07T10:38:50;12.95;;;8.52;;
36379;SDS011;22411;53.016;18.632;2024-01-07T10:41:19;44.65;;;22.05;;
36379;SDS011;22411;53.016;18.632;2024-01-07T10:43:47;13.02;;;7.40;;
36379;SDS011;22411;53.016;18.632;2024-01-07T10:46:14;40.47;;;21.33;;
36379;SDS011;22411;53.016;18.632;2024-01-07T10:48:44;20.73;;;12.37;;
36379;SDS011;22411;53.016;18.632;2024-01-07T10:51:19;22.67;;;13.63;;
36379;SDS011;22411;53.016;18.632;2024-01-07T10:53:46;31.30;;;22.13;;
36379;SDS011;22411;53.016;18.632;2024-01-07T10:56:18;30.90;;;22.93;;
36379;SDS011;22411;53.016;18.632;2024-01-07T10:58:49;36.93;;;27.93;;
36379;SDS011;22411;53.016;18.632;2024-01-07T11:04:03;15.90;;;9.40;;
36379;SDS011;22411;53.016;18.632;2024-01-07T11:06:42;20.93;;;12.60;;
36379;SDS011;22411;53.016;18.632;2024-01-07T11:11:44;20.08;;;13.63;;
36379;SDS011;22411;53.016;18.632;2024-01-07T11:14:55;22.80;;;14.53;;
36379;SDS011;22411;53.016;18.632;2024-01-07T11:17:08;19.63;;;11.57;;
36379;SDS011;22411;53.016;18.632;2024-01-07T11:19:37;18.37;;;10.67;;
36379;SDS011;22411;53.016;18.632;2024-01-07T11:24:50;20.27;;;13.50;;
36379;SDS011;22411;53.016;18.632;2024-01-07T11:27:17;21.23;;;12.83;;
36379;SDS011;22411;53.016;18.632;2024-01-07T11:29:43;16.90;;;13.20;;
36379;SDS011;22411;53.016;18.632;2024-01-07T11:32:12;19.33;;;12.10;;
36379;SDS011;22411;53.016;18.632;2024-01-07T11:34:38;27.53;;;14.67;;
36379;SDS011;22411;53.016;18.632;2024-01-07T11:37:12;21.63;;;12.57;;
36379;SDS011;22411;53.016;18.632;2024-01-07T11:39:41;17.80;;;11.10;;
36379;SDS011;22411;53.016;18.632;2024-01-07T11:42:08;19.47;;;11.60;;
36379;SDS011;22411;53.016;18.632;2024-01-07T11:44:34;18.07;;;11.77;;
36379;SDS011;22411;53.016;18.632;2024-01-07T11:47:03;15.80;;;12.47;;
36379;SDS011;22411;53.016;18.632;2024-01-07T11:49:32;16.30;;;10.83;;
36379;SDS011;22411;53.016;18.632;2024-01-07T11:51:59;17.27;;;10.97;;
36379;SDS011;22411;53.016;18.632;2024-01-07T11:54:25;15.80;;;8.63;;
36379;SDS011;22411;53.016;18.632;2024-01-07T11:56:51;20.37;;;10.77;;
36379;SDS011;22411;53.016;18.632;2024-01-07T11:59:16;21.67;;;12.70;;
36379;SDS011;22411;53.016;18.632;2024-01-07T12:01:45;17.57;;;9.47;;
36379;SDS011;22411;53.016;18.632;2024-01-07T12:04:10;12.77;;;9.30;;
36379;SDS011;22411;53.016;18.632;2024-01-07T12:06:38;25.47;;;12.87;;
36379;SDS011;22411;53.016;18.632;2024-01-07T12:09:04;35.57;;;18.50;;
36379;SDS011;22411;53.016;18.632;2024-01-07T12:11:30;25.27;;;14.00;;
36379;SDS011;22411;53.016;18.632;2024-01-07T12:13:56;20.13;;;14.37;;
36379;SDS011;22411;53.016;18.632;2024-01-07T12:16:22;18.47;;;12.00;;
36379;SDS011;22411;53.016;18.632;2024-01-07T12:18:48;17.10;;;10.73;;
36379;SDS011;22411;53.016;18.632;2024-01-07T12:21:18;18.77;;;9.83;;
36379;SDS011;22411;53.016;18.632;2024-01-07T12:23:48;15.80;;;10.20;;
36379;SDS011;22411;53.016;18.632;2024-01-07T12:26:16;16.93;;;8.00;;
36379;SDS011;22411;53.016;18.632;2024-01-07T12:28:44;16.53;;;10.30;;
36379;SDS011;22411;53.016;18.632;2024-01-07T12:31:10;33.30;;;14.83;;
36379;SDS011;22411;53.016;18.632;2024-01-07T12:33:39;30.37;;;14.33;;
36379;SDS011;22411;53.016;18.632;2024-01-07T12:36:06;17.80;;;10.50;;
36379;SDS011;22411;53.016;18.632;2024-01-07T12:38:32;23.03;;;11.80;;
36379;SDS011;22411;53.016;18.632;2024-01-07T12:40:58;18.30;;;10.97;;
36379;SDS011;22411;53.016;18.632;2024-01-07T12:43:24;18.63;;;10.27;;
36379;SDS011;22411;53.016;18.632;2024-01-07T12:45:51;29.60;;;15.00;;
36379;SDS011;22411;53.016;18.632;2024-01-07T12:48:16;28.40;;;15.47;;
36379;SDS011;22411;53.016;18.632;2024-01-07T12:50:42;21.63;;;11.00;;
36379;SDS011;22411;53.016;18.632;2024-01-07T12:53:08;24.27;;;14.67;;
36379;SDS011;22411;53.016;18.632;2024-01-07T12:55:34;31.87;;;15.27;;
36379;SDS011;22411;53.016;18.632;2024-01-07T12:58:00;22.87;;;13.70;;
36379;SDS011;22411;53.016;18.632;2024-01-07T13:00:26;27.50;;;13.70;;
36379;SDS011;22411;53.016;18.632;2024-01-07T13:02:54;21.77;;;12.27;;
36379;SDS011;22411;53.016;18.632;2024-01-07T13:05:20;19.87;;;13.17;;
36379;SDS011;22411;53.016;18.632;2024-01-07T13:07:49;31.67;;;17.33;;
36379;SDS011;22411;53.016;18.632;2024-01-07T13:10:15;37.53;;;18.13;;
36379;SDS011;22411;53.016;18.632;2024-01-07T13:12:42;36.43;;;16.37;;
36379;SDS011;22411;53.016;18.632;2024-01-07T13:15:08;65.80;;;29.03;;
36379;SDS011;22411;53.016;18.632;2024-01-07T13:17:34;42.03;;;21.97;;
36379;SDS011;22411;53.016;18.632;2024-01-07T13:20:00;49.87;;;25.73;;
36379;SDS011;22411;53.016;18.632;2024-01-07T13:22:26;59.57;;;29.93;;
36379;SDS011;22411;53.016;18.632;2024-01-07T13:24:52;50.67;;;26.53;;
36379;SDS011;22411;53.016;18.632;2024-01-07T13:27:19;47.03;;;20.87;;
36379;SDS011;22411;53.016;18.632;2024-01-07T13:29:47;109.23;;;42.07;;
36379;SDS011;22411;53.016;18.632;2024-01-07T13:32:13;108.83;;;44.07;;
36379;SDS011;22411;53.016;18.632;2024-01-07T13:34:43;43.35;;;19.67;;
36379;SDS011;22411;53.016;18.632;2024-01-07T13:37:09;47.13;;;23.00;;
36379;SDS011;22411;53.016;18.632;2024-01-07T13:39:36;26.63;;;14.77;;
36379;SDS011;22411;53.016;18.632;2024-01-07T13:42:01;14.20;;;9.87;;
36379;SDS011;22411;53.016;18.632;2024-01-07T13:44:28;28.17;;;15.47;;
36379;SDS011;22411;53.016;18.632;2024-01-07T13:46:53;27.50;;;16.60;;
36379;SDS011;22411;53.016;18.632;2024-01-07T13:49:19;34.00;;;20.03;;
36379;SDS011;22411;53.016;18.632;2024-01-07T13:51:45;30.50;;;18.50;;
36379;SDS011;22411;53.016;18.632;2024-01-07T13:54:11;35.80;;;20.73;;
36379;SDS011;22411;53.016;18.632;2024-01-07T13:56:40;32.97;;;17.53;;
36379;SDS011;22411;53.016;18.632;2024-01-07T13:59:10;39.58;;;21.23;;
36379;SDS011;22411;53.016;18.632;2024-01-07T14:01:36;44.23;;;21.63;;
36379;SDS011;22411;53.016;18.632;2024-01-07T14:04:03;27.43;;;17.07;;
36379;SDS011;22411;53.016;18.632;2024-01-07T14:06:29;20.60;;;11.47;;
36379;SDS011;22411;53.016;18.632;2024-01-07T14:08:56;17.47;;;11.57;;
36379;SDS011;22411;53.016;18.632;2024-01-07T14:11:21;20.63;;;11.23;;
36379;SDS011;22411;53.016;18.632;2024-01-07T14:13:47;15.97;;;10.23;;
36379;SDS011;22411;53.016;18.632;2024-01-07T14:16:13;14.07;;;9.00;;
36379;SDS011;22411;53.016;18.632;2024-01-07T14:18:40;18.83;;;12.27;;
36379;SDS011;22411;53.016;18.632;2024-01-07T14:21:05;18.53;;;12.70;;
36379;SDS011;22411;53.016;18.632;2024-01-07T14:23:32;22.23;;;13.37;;
36379;SDS011;22411;53.016;18.632;2024-01-07T14:25:59;15.03;;;8.93;;